sensor_id;sensor_type;location;lat;lon;timestamp;P1;durP1;ratioP1;P2;durP2;ratioP2
22129;SDS011;11231;50.746;4.272;2023-04-25T00:01:17;17.60;;;4.70;;
22129;SDS011;11231;50.746;4.272;2023-04-25T00:03:44;26.33;;;5.07;;
22129;SDS011;11231;50.746;4.272;2023-04-25T00:06:12;18.67;;;4.97;;
22129;SDS011;11231;50.746;4.272;2023-04-25T00:08:38;20.87;;;4.40;;
22129;SDS011;11231;50.746;4.272;2023-04-25T00:11:04;18.43;;;4.83;;
22129;SDS011;11231;50.746;4.272;2023-04-25T00:13:30;24.57;;;5.10;;
22129;SDS011;11231;50.746;4.272;2023-04-25T00:15:56;22.00;;;4.90;;
22129;SDS011;11231;50.746;4.272;2023-04-25T00:18:23;19.73;;;4.83;;
22129;SDS011;11231;50.746;4.272;2023-04-25T00:20:49;15.63;;;4.50;;
22129;SDS011;11231;50.746;4.272;2023-04-25T00:23:15;19.60;;;5.10;;
22129;SDS011;11231;50.746;4.272;2023-04-25T00:25:45;17.30;;;5.23;;
22129;SDS011;11231;50.746;4.272;2023-04-25T00:28:12;21.97;;;5.37;;
22129;SDS011;11231;50.746;4.272;2023-04-25T00:30:38;25.43;;;4.90;;
22129;SDS011;11231;50.746;4.272;2023-04-25T00:33:05;22.27;;;4.90;;
22129;SDS011;11231;50.746;4.272;2023-04-25T00:35:31;21.77;;;4.90;;
22129;SDS011;11231;50.746;4.272;2023-04-25T00:37:57;22.47;;;5.20;;
22129;SDS011;11231;50.746;4.272;2023-04-25T00:40:23;22.57;;;4.77;;
22129;SDS011;11231;50.746;4.272;2023-04-25T00:42:49;23.00;;;5.27;;
22129;SDS011;11231;50.746;4.272;2023-04-25T00:45:16;21.90;;;5.13;;
22129;SDS011;11231;50.746;4.272;2023-04-25T00:47:43;18.93;;;5.10;;
22129;SDS011;11231;50.746;4.272;2023-04-25T00:50:09;19.43;;;5.23;;
22129;SDS011;11231;50.746;4.272;2023-04-25T00:52:37;27.80;;;5.70;;
22129;SDS011;11231;50.746;4.272;2023-04-25T00:55:06;21.93;;;5.57;;
22129;SDS011;11231;50.746;4.272;2023-04-25T00:57:33;21.07;;;4.90;;
22129;SDS011;11231;50.746;4.272;2023-04-25T00:59:59;25.37;;;5.83;;
22129;SDS011;11231;50.746;4.272;2023-04-25T01:02:27;22.10;;;5.80;;
22129;SDS011;11231;50.746;4.272;2023-04-25T01:04:53;22.60;;;6.00;;
22129;SDS011;11231;50.746;4.272;2023-04-25T01:07:19;23.83;;;5.10;;
22129;SDS011;11231;50.746;4.272;2023-04-25T01:09:46;26.17;;;5.53;;
22129;SDS011;11231;50.746;4.272;2023-04-25T01:12:12;23.53;;;5.60;;
22129;SDS011;11231;50.746;4.272;2023-04-25T01:14:39;21.53;;;5.67;;
22129;SDS011;11231;50.746;4.272;2023-04-25T01:17:05;19.87;;;5.00;;
22129;SDS011;11231;50.746;4.272;2023-04-25T01:19:33;25.00;;;5.37;;
22129;SDS011;11231;50.746;4.272;2023-04-25T01:22:00;18.77;;;5.57;;
22129;SDS011;11231;50.746;4.272;2023-04-25T01:24:26;27.27;;;5.80;;
22129;SDS011;11231;50.746;4.272;2023-04-25T01:26:54;20.60;;;5.27;;
22129;SDS011;11231;50.746;4.272;2023-04-25T01:29:23;21.83;;;5.57;;
22129;SDS011;11231;50.746;4.272;2023-04-25T01:31:50;20.23;;;5.60;;
22129;SDS011;11231;50.746;4.272;2023-04-25T01:34:17;21.30;;;5.30;;
22129;SDS011;11231;50.746;4.272;2023-04-25T01:36:43;20.93;;;5.73;;
22129;SDS011;11231;50.746;4.272;2023-04-25T01:39:09;26.77;;;5.63;;
22129;SDS011;11231;50.746;4.272;2023-04-25T01:41:35;18.30;;;5.63;;
22129;SDS011;11231;50.746;4.272;2023-04-25T01:44:02;26.70;;;7.13;;
22129;SDS011;11231;50.746;4.272;2023-04-25T01:46:28;26.50;;;6.57;;
22129;SDS011;11231;50.746;4.272;2023-04-25T01:48:55;24.93;;;6.40;;
22129;SDS011;11231;50.746;4.272;2023-04-25T01:51:21;23.77;;;6.20;;
22129;SDS011;11231;50.746;4.272;2023-04-25T01:53:47;24.63;;;6.37;;
22129;SDS011;11231;50.746;4.272;2023-04-25T01:56:14;25.67;;;6.57;;
22129;SDS011;11231;50.746;4.272;2023-04-25T01:58:39;27.47;;;6.07;;
22129;SDS011;11231;50.746;4.272;2023-04-25T02:01:32;29.63;;;7.50;;
22129;SDS011;11231;50.746;4.272;2023-04-25T02:04:14;26.57;;;6.90;;
22129;SDS011;11231;50.746;4.272;2023-04-25T02:06:40;21.10;;;6.60;;
22129;SDS011;11231;50.746;4.272;2023-04-25T02:09:06;24.50;;;6.87;;
22129;SDS011;11231;50.746;4.272;2023-04-25T02:11:32;24.30;;;6.87;;
22129;SDS011;11231;50.746;4.272;2023-04-25T02:14:27;23.07;;;6.63;;
22129;SDS011;11231;50.746;4.272;2023-04-25T02:17:23;20.60;;;6.33;;
22129;SDS011;11231;50.746;4.272;2023-04-25T02:19:50;29.17;;;7.00;;
22129;SDS011;11231;50.746;4.272;2023-04-25T02:22:15;26.50;;;6.27;;
22129;SDS011;11231;50.746;4.272;2023-04-25T02:24:41;27.00;;;6.90;;
22129;SDS011;11231;50.746;4.272;2023-04-25T02:27:07;26.17;;;7.03;;
22129;SDS011;11231;50.746;4.272;2023-04-25T02:29:34;27.50;;;6.40;;
22129;SDS011;11231;50.746;4.272;2023-04-25T02:32:00;24.87;;;7.33;;
22129;SDS011;11231;50.746;4.272;2023-04-25T02:34:25;25.00;;;6.80;;
22129;SDS011;11231;50.746;4.272;2023-04-25T02:36:51;24.10;;;6.30;;
22129;SDS011;11231;50.746;4.272;2023-04-25T02:39:17;30.23;;;6.67;;
22129;SDS011;11231;50.746;4.272;2023-04-25T02:41:43;25.17;;;6.23;;
22129;SDS011;11231;50.746;4.272;2023-04-25T02:44:09;26.07;;;7.70;;
22129;SDS011;11231;50.746;4.272;2023-04-25T02:46:36;28.93;;;6.70;;
22129;SDS011;11231;50.746;4.272;2023-04-25T02:49:02;25.70;;;6.60;;
22129;SDS011;11231;50.746;4.272;2023-04-25T02:51:29;20.27;;;6.20;;
22129;SDS011;11231;50.746;4.272;2023-04-25T02:53:55;21.63;;;6.67;;
22129;SDS011;11231;50.746;4.272;2023-04-25T02:56:21;25.03;;;6.97;;
22129;SDS011;11231;50.746;4.272;2023-04-25T02:58:47;21.77;;;6.40;;
22129;SDS011;11231;50.746;4.272;2023-04-25T03:01:13;28.83;;;7.00;;
22129;SDS011;11231;50.746;4.272;2023-04-25T03:03:39;27.83;;;7.17;;
22129;SDS011;11231;50.746;4.272;2023-04-25T03:06:05;29.33;;;7.27;;
22129;SDS011;11231;50.746;4.272;2023-04-25T03:08:32;27.53;;;6.70;;
22129;SDS011;11231;50.746;4.272;2023-04-25T03:11:00;27.17;;;6.90;;
22129;SDS011;11231;50.746;4.272;2023-04-25T03:13:26;20.20;;;6.57;;
22129;SDS011;11231;50.746;4.272;2023-04-25T03:15:53;23.50;;;6.97;;
22129;SDS011;11231;50.746;4.272;2023-04-25T03:18:18;24.40;;;7.40;;
22129;SDS011;11231;50.746;4.272;2023-04-25T03:20:44;22.10;;;6.70;;
22129;SDS011;11231;50.746;4.272;2023-04-25T03:23:10;26.57;;;7.07;;
22129;SDS011;11231;50.746;4.272;2023-04-25T03:25:38;23.47;;;6.73;;
22129;SDS011;11231;50.746;4.272;2023-04-25T03:28:04;24.07;;;6.80;;
22129;SDS011;11231;50.746;4.272;2023-04-25T03:30:30;21.33;;;6.80;;
22129;SDS011;11231;50.746;4.272;2023-04-25T03:32:57;22.77;;;7.07;;
22129;SDS011;11231;50.746;4.272;2023-04-25T03:35:23;23.13;;;7.70;;
22129;SDS011;11231;50.746;4.272;2023-04-25T03:37:49;32.47;;;7.50;;
22129;SDS011;11231;50.746;4.272;2023-04-25T03:40:21;27.30;;;7.20;;
22129;SDS011;11231;50.746;4.272;2023-04-25T03:43:05;28.77;;;7.20;;
22129;SDS011;11231;50.746;4.272;2023-04-25T03:45:33;27.53;;;6.17;;
22129;SDS011;11231;50.746;4.272;2023-04-25T03:47:58;27.93;;;7.00;;
22129;SDS011;11231;50.746;4.272;2023-04-25T03:50:27;34.27;;;7.57;;
22129;SDS011;11231;50.746;4.272;2023-04-25T03:52:53;23.87;;;6.87;;
22129;SDS011;11231;50.746;4.272;2023-04-25T03:55:19;26.37;;;7.13;;
22129;SDS011;11231;50.746;4.272;2023-04-25T03:57:45;26.73;;;6.50;;
22129;SDS011;11231;50.746;4.272;2023-04-25T04:00:11;28.20;;;6.40;;
22129;SDS011;11231;50.746;4.272;2023-04-25T04:02:40;25.47;;;5.97;;
22129;SDS011;11231;50.746;4.272;2023-04-25T04:05:07;23.57;;;6.23;;
22129;SDS011;11231;50.746;4.272;2023-04-25T04:07:37;27.33;;;6.83;;
22129;SDS011;11231;50.746;4.272;2023-04-25T04:10:07;35.27;;;6.70;;
22129;SDS011;11231;50.746;4.272;2023-04-25T04:12:36;23.03;;;5.90;;
22129;SDS011;11231;50.746;4.272;2023-04-25T04:15:03;28.10;;;6.27;;
22129;SDS011;11231;50.746;4.272;2023-04-25T04:17:31;24.93;;;6.47;;
22129;SDS011;11231;50.746;4.272;2023-04-25T04:19:57;28.77;;;6.77;;
22129;SDS011;11231;50.746;4.272;2023-04-25T04:22:24;24.97;;;6.40;;
22129;SDS011;11231;50.746;4.272;2023-04-25T04:24:53;22.13;;;5.93;;
22129;SDS011;11231;50.746;4.272;2023-04-25T04:27:41;28.97;;;7.00;;
22129;SDS011;11231;50.746;4.272;2023-04-25T04:30:23;27.40;;;6.00;;
22129;SDS011;11231;50.746;4.272;2023-04-25T04:32:55;23.57;;;5.70;;
22129;SDS011;11231;50.746;4.272;2023-04-25T04:35:22;30.93;;;6.53;;
22129;SDS011;11231;50.746;4.272;2023-04-25T04:37:49;26.50;;;6.30;;
22129;SDS011;11231;50.746;4.272;2023-04-25T04:40:17;30.37;;;6.17;;
22129;SDS011;11231;50.746;4.272;2023-04-25T04:43:18;28.10;;;6.10;;
22129;SDS011;11231;50.746;4.272;2023-04-25T04:45:50;31.00;;;6.57;;
22129;SDS011;11231;50.746;4.272;2023-04-25T04:48:33;22.70;;;6.23;;
22129;SDS011;11231;50.746;4.272;2023-04-25T04:51:18;20.70;;;6.07;;
22129;SDS011;11231;50.746;4.272;2023-04-25T04:53:43;24.97;;;6.57;;
22129;SDS011;11231;50.746;4.272;2023-04-25T04:56:39;26.00;;;5.93;;
22129;SDS011;11231;50.746;4.272;2023-04-25T04:59:32;26.90;;;6.90;;
22129;SDS011;11231;50.746;4.272;2023-04-25T05:02:37;30.30;;;6.50;;
22129;SDS011;11231;50.746;4.272;2023-04-25T05:05:26;23.30;;;6.07;;
22129;SDS011;11231;50.746;4.272;2023-04-25T05:08:10;28.10;;;6.83;;
22129;SDS011;11231;50.746;4.272;2023-04-25T05:11:14;26.90;;;6.20;;
22129;SDS011;11231;50.746;4.272;2023-04-25T05:13:54;28.00;;;6.03;;
22129;SDS011;11231;50.746;4.272;2023-04-25T05:16:45;24.47;;;5.77;;
22129;SDS011;11231;50.746;4.272;2023-04-25T05:19:29;26.97;;;6.53;;
22129;SDS011;11231;50.746;4.272;2023-04-25T05:22:15;21.37;;;6.70;;
22129;SDS011;11231;50.746;4.272;2023-04-25T05:25:10;27.03;;;6.73;;
22129;SDS011;11231;50.746;4.272;2023-04-25T05:27:54;24.00;;;6.50;;
22129;SDS011;11231;50.746;4.272;2023-04-25T05:30:42;27.33;;;6.17;;
22129;SDS011;11231;50.746;4.272;2023-04-25T05:33:28;32.30;;;6.67;;
22129;SDS011;11231;50.746;4.272;2023-04-25T05:35:53;21.70;;;6.80;;
22129;SDS011;11231;50.746;4.272;2023-04-25T05:38:20;17.93;;;5.63;;
22129;SDS011;11231;50.746;4.272;2023-04-25T05:41:12;21.57;;;5.50;;
22129;SDS011;11231;50.746;4.272;2023-04-25T05:43:41;20.10;;;5.30;;
22129;SDS011;11231;50.746;4.272;2023-04-25T05:46:21;18.00;;;4.63;;
22129;SDS011;11231;50.746;4.272;2023-04-25T05:49:08;18.83;;;4.87;;
22129;SDS011;11231;50.746;4.272;2023-04-25T05:52:01;20.90;;;4.73;;
22129;SDS011;11231;50.746;4.272;2023-04-25T05:54:46;16.43;;;4.30;;
22129;SDS011;11231;50.746;4.272;2023-04-25T05:57:19;18.33;;;4.57;;
22129;SDS011;11231;50.746;4.272;2023-04-25T05:59:49;18.43;;;4.03;;
22129;SDS011;11231;50.746;4.272;2023-04-25T06:02:16;18.97;;;4.40;;
22129;SDS011;11231;50.746;4.272;2023-04-25T06:04:42;18.67;;;5.03;;
22129;SDS011;11231;50.746;4.272;2023-04-25T06:07:08;20.37;;;5.10;;
22129;SDS011;11231;50.746;4.272;2023-04-25T06:09:35;15.33;;;4.47;;
22129;SDS011;11231;50.746;4.272;2023-04-25T06:12:00;18.13;;;4.80;;
22129;SDS011;11231;50.746;4.272;2023-04-25T06:14:28;23.07;;;4.23;;
22129;SDS011;11231;50.746;4.272;2023-04-25T06:16:54;18.10;;;4.60;;
22129;SDS011;11231;50.746;4.272;2023-04-25T06:19:20;22.37;;;4.87;;
22129;SDS011;11231;50.746;4.272;2023-04-25T06:21:46;19.60;;;4.40;;
22129;SDS011;11231;50.746;4.272;2023-04-25T06:24:12;17.10;;;4.77;;
22129;SDS011;11231;50.746;4.272;2023-04-25T06:26:39;19.70;;;4.90;;
22129;SDS011;11231;50.746;4.272;2023-04-25T06:29:05;16.17;;;4.87;;
22129;SDS011;11231;50.746;4.272;2023-04-25T06:31:31;22.03;;;5.23;;
22129;SDS011;11231;50.746;4.272;2023-04-25T06:33:59;30.07;;;6.07;;
22129;SDS011;11231;50.746;4.272;2023-04-25T06:36:26;23.40;;;5.87;;
22129;SDS011;11231;50.746;4.272;2023-04-25T06:38:57;26.93;;;5.20;;
22129;SDS011;11231;50.746;4.272;2023-04-25T06:41:23;28.17;;;4.67;;
22129;SDS011;11231;50.746;4.272;2023-04-25T06:43:48;20.20;;;4.27;;
22129;SDS011;11231;50.746;4.272;2023-04-25T06:46:31;14.80;;;3.80;;
22129;SDS011;11231;50.746;4.272;2023-04-25T06:48:58;21.37;;;4.40;;
22129;SDS011;11231;50.746;4.272;2023-04-25T06:51:24;19.97;;;4.37;;
22129;SDS011;11231;50.746;4.272;2023-04-25T06:53:53;16.50;;;4.60;;
22129;SDS011;11231;50.746;4.272;2023-04-25T06:56:28;18.60;;;3.97;;
22129;SDS011;11231;50.746;4.272;2023-04-25T06:59:01;17.90;;;4.17;;
22129;SDS011;11231;50.746;4.272;2023-04-25T07:01:33;16.93;;;4.03;;
22129;SDS011;11231;50.746;4.272;2023-04-25T07:04:05;19.17;;;4.70;;
22129;SDS011;11231;50.746;4.272;2023-04-25T07:06:32;20.77;;;4.90;;
22129;SDS011;11231;50.746;4.272;2023-04-25T07:08:59;16.90;;;4.63;;
22129;SDS011;11231;50.746;4.272;2023-04-25T07:11:25;19.77;;;4.53;;
22129;SDS011;11231;50.746;4.272;2023-04-25T07:13:52;23.27;;;4.60;;
22129;SDS011;11231;50.746;4.272;2023-04-25T07:16:17;24.47;;;5.00;;
22129;SDS011;11231;50.746;4.272;2023-04-25T07:18:45;16.20;;;3.77;;
22129;SDS011;11231;50.746;4.272;2023-04-25T07:21:10;20.63;;;3.80;;
22129;SDS011;11231;50.746;4.272;2023-04-25T07:23:38;15.73;;;3.83;;
22129;SDS011;11231;50.746;4.272;2023-04-25T07:26:09;24.87;;;4.50;;
22129;SDS011;11231;50.746;4.272;2023-04-25T07:28:42;19.47;;;3.90;;
22129;SDS011;11231;50.746;4.272;2023-04-25T07:31:09;18.63;;;3.90;;
22129;SDS011;11231;50.746;4.272;2023-04-25T07:33:35;16.17;;;3.90;;
22129;SDS011;11231;50.746;4.272;2023-04-25T07:36:00;19.03;;;4.00;;
22129;SDS011;11231;50.746;4.272;2023-04-25T07:38:27;24.27;;;5.17;;
22129;SDS011;11231;50.746;4.272;2023-04-25T07:40:53;18.30;;;3.70;;
22129;SDS011;11231;50.746;4.272;2023-04-25T07:43:21;16.07;;;3.30;;
22129;SDS011;11231;50.746;4.272;2023-04-25T07:45:53;16.27;;;3.10;;
22129;SDS011;11231;50.746;4.272;2023-04-25T07:48:20;18.13;;;3.20;;
22129;SDS011;11231;50.746;4.272;2023-04-25T07:50:47;17.80;;;3.53;;
22129;SDS011;11231;50.746;4.272;2023-04-25T07:53:14;17.70;;;2.87;;
22129;SDS011;11231;50.746;4.272;2023-04-25T07:55:49;16.47;;;2.80;;
22129;SDS011;11231;50.746;4.272;2023-04-25T07:58:23;20.67;;;2.80;;
22129;SDS011;11231;50.746;4.272;2023-04-25T08:00:54;16.40;;;3.07;;
22129;SDS011;11231;50.746;4.272;2023-04-25T08:03:40;16.47;;;2.80;;
22129;SDS011;11231;50.746;4.272;2023-04-25T08:06:12;16.83;;;2.83;;
22129;SDS011;11231;50.746;4.272;2023-04-25T08:08:49;15.40;;;2.90;;
22129;SDS011;11231;50.746;4.272;2023-04-25T08:11:17;13.77;;;2.70;;
22129;SDS011;11231;50.746;4.272;2023-04-25T08:13:43;17.77;;;3.40;;
22129;SDS011;11231;50.746;4.272;2023-04-25T08:16:09;14.97;;;2.90;;
22129;SDS011;11231;50.746;4.272;2023-04-25T08:18:35;13.63;;;2.53;;
22129;SDS011;11231;50.746;4.272;2023-04-25T08:21:01;15.00;;;2.73;;
22129;SDS011;11231;50.746;4.272;2023-04-25T08:23:27;17.13;;;2.97;;
22129;SDS011;11231;50.746;4.272;2023-04-25T08:26:07;13.57;;;2.80;;
22129;SDS011;11231;50.746;4.272;2023-04-25T08:28:37;16.23;;;3.20;;
22129;SDS011;11231;50.746;4.272;2023-04-25T08:31:03;14.10;;;2.73;;
22129;SDS011;11231;50.746;4.272;2023-04-25T08:33:36;13.33;;;2.90;;
22129;SDS011;11231;50.746;4.272;2023-04-25T08:36:22;17.97;;;2.97;;
22129;SDS011;11231;50.746;4.272;2023-04-25T08:38:49;15.77;;;2.70;;
22129;SDS011;11231;50.746;4.272;2023-04-25T08:41:17;15.20;;;2.90;;
22129;SDS011;11231;50.746;4.272;2023-04-25T08:43:46;14.27;;;2.70;;
22129;SDS011;11231;50.746;4.272;2023-04-25T08:46:16;11.80;;;2.50;;
22129;SDS011;11231;50.746;4.272;2023-04-25T08:49:03;14.83;;;2.90;;
22129;SDS011;11231;50.746;4.272;2023-04-25T08:51:31;13.10;;;2.03;;
22129;SDS011;11231;50.746;4.272;2023-04-25T08:54:08;15.87;;;3.07;;
22129;SDS011;11231;50.746;4.272;2023-04-25T08:56:37;14.97;;;2.83;;
22129;SDS011;11231;50.746;4.272;2023-04-25T08:59:04;11.83;;;2.33;;
22129;SDS011;11231;50.746;4.272;2023-04-25T09:01:35;10.47;;;2.30;;
22129;SDS011;11231;50.746;4.272;2023-04-25T09:04:02;15.77;;;2.80;;
22129;SDS011;11231;50.746;4.272;2023-04-25T09:06:30;9.93;;;2.10;;
22129;SDS011;11231;50.746;4.272;2023-04-25T09:09:02;10.97;;;2.47;;
22129;SDS011;11231;50.746;4.272;2023-04-25T09:11:32;9.13;;;2.20;;
22129;SDS011;11231;50.746;4.272;2023-04-25T09:14:18;9.53;;;2.27;;
22129;SDS011;11231;50.746;4.272;2023-04-25T09:17:00;10.20;;;2.20;;
22129;SDS011;11231;50.746;4.272;2023-04-25T09:19:36;11.87;;;2.40;;
22129;SDS011;11231;50.746;4.272;2023-04-25T09:22:09;12.77;;;1.97;;
22129;SDS011;11231;50.746;4.272;2023-04-25T09:27:09;13.10;;;2.13;;
22129;SDS011;11231;50.746;4.272;2023-04-25T09:29:37;11.97;;;2.83;;
22129;SDS011;11231;50.746;4.272;2023-04-25T09:34:39;9.63;;;2.00;;
22129;SDS011;11231;50.746;4.272;2023-04-25T09:37:10;14.97;;;2.40;;
22129;SDS011;11231;50.746;4.272;2023-04-25T09:39:56;11.60;;;2.80;;
22129;SDS011;11231;50.746;4.272;2023-04-25T09:42:31;12.43;;;2.47;;
22129;SDS011;11231;50.746;4.272;2023-04-25T09:44:59;13.70;;;2.30;;
22129;SDS011;11231;50.746;4.272;2023-04-25T09:47:30;14.90;;;3.00;;
22129;SDS011;11231;50.746;4.272;2023-04-25T09:49:56;10.77;;;2.30;;
22129;SDS011;11231;50.746;4.272;2023-04-25T09:52:22;17.47;;;2.93;;
22129;SDS011;11231;50.746;4.272;2023-04-25T09:55:00;12.80;;;2.43;;
22129;SDS011;11231;50.746;4.272;2023-04-25T09:57:32;12.67;;;2.27;;
22129;SDS011;11231;50.746;4.272;2023-04-25T10:00:00;9.90;;;2.70;;
22129;SDS011;11231;50.746;4.272;2023-04-25T10:02:39;10.97;;;2.17;;
22129;SDS011;11231;50.746;4.272;2023-04-25T10:05:24;10.23;;;2.20;;
22129;SDS011;11231;50.746;4.272;2023-04-25T10:07:53;12.87;;;2.60;;
22129;SDS011;11231;50.746;4.272;2023-04-25T10:10:20;11.93;;;1.97;;
22129;SDS011;11231;50.746;4.272;2023-04-25T10:12:50;12.53;;;2.30;;
22129;SDS011;11231;50.746;4.272;2023-04-25T10:15:16;13.80;;;1.93;;
22129;SDS011;11231;50.746;4.272;2023-04-25T10:17:43;8.73;;;2.00;;
22129;SDS011;11231;50.746;4.272;2023-04-25T10:20:09;10.67;;;1.83;;
22129;SDS011;11231;50.746;4.272;2023-04-25T10:22:42;8.60;;;1.93;;
22129;SDS011;11231;50.746;4.272;2023-04-25T10:25:11;12.37;;;2.10;;
22129;SDS011;11231;50.746;4.272;2023-04-25T10:27:38;9.47;;;2.17;;
22129;SDS011;11231;50.746;4.272;2023-04-25T10:30:05;9.03;;;1.80;;
22129;SDS011;11231;50.746;4.272;2023-04-25T10:32:35;7.17;;;1.50;;
22129;SDS011;11231;50.746;4.272;2023-04-25T10:35:23;8.00;;;1.60;;
22129;SDS011;11231;50.746;4.272;2023-04-25T10:38:00;6.97;;;1.90;;
22129;SDS011;11231;50.746;4.272;2023-04-25T10:40:33;9.93;;;1.80;;
22129;SDS011;11231;50.746;4.272;2023-04-25T10:45:56;8.40;;;1.50;;
22129;SDS011;11231;50.746;4.272;2023-04-25T10:48:27;7.23;;;1.67;;
22129;SDS011;11231;50.746;4.272;2023-04-25T10:51:16;5.60;;;1.57;;
22129;SDS011;11231;50.746;4.272;2023-04-25T10:53:45;5.63;;;1.60;;
22129;SDS011;11231;50.746;4.272;2023-04-25T10:59:05;14.17;;;1.80;;
22129;SDS011;11231;50.746;4.272;2023-04-25T11:01:38;14.23;;;2.30;;
22129;SDS011;11231;50.746;4.272;2023-04-25T11:04:20;14.30;;;2.00;;
22129;SDS011;11231;50.746;4.272;2023-04-25T11:09:40;11.37;;;2.03;;
22129;SDS011;11231;50.746;4.272;2023-04-25T11:12:09;8.60;;;1.80;;
22129;SDS011;11231;50.746;4.272;2023-04-25T11:14:36;14.20;;;2.00;;
22129;SDS011;11231;50.746;4.272;2023-04-25T11:17:02;15.73;;;2.20;;
22129;SDS011;11231;50.746;4.272;2023-04-25T11:19:28;12.17;;;2.13;;
22129;SDS011;11231;50.746;4.272;2023-04-25T11:21:55;14.10;;;1.93;;
22129;SDS011;11231;50.746;4.272;2023-04-25T11:24:28;10.53;;;1.60;;
22129;SDS011;11231;50.746;4.272;2023-04-25T11:26:56;11.37;;;1.80;;
22129;SDS011;11231;50.746;4.272;2023-04-25T11:29:27;15.83;;;2.00;;
22129;SDS011;11231;50.746;4.272;2023-04-25T11:31:54;18.20;;;2.27;;
22129;SDS011;11231;50.746;4.272;2023-04-25T11:34:23;18.43;;;2.30;;
22129;SDS011;11231;50.746;4.272;2023-04-25T11:36:50;9.87;;;1.90;;
22129;SDS011;11231;50.746;4.272;2023-04-25T11:39:18;11.07;;;2.10;;
22129;SDS011;11231;50.746;4.272;2023-04-25T11:41:44;11.53;;;1.70;;
22129;SDS011;11231;50.746;4.272;2023-04-25T11:44:10;12.80;;;1.67;;
22129;SDS011;11231;50.746;4.272;2023-04-25T11:46:36;9.30;;;1.47;;
22129;SDS011;11231;50.746;4.272;2023-04-25T11:49:02;8.93;;;1.60;;
22129;SDS011;11231;50.746;4.272;2023-04-25T11:51:29;14.10;;;3.07;;
22129;SDS011;11231;50.746;4.272;2023-04-25T11:53:56;8.30;;;1.60;;
22129;SDS011;11231;50.746;4.272;2023-04-25T11:56:22;10.47;;;1.70;;
22129;SDS011;11231;50.746;4.272;2023-04-25T11:58:57;12.87;;;1.70;;
22129;SDS011;11231;50.746;4.272;2023-04-25T12:01:29;9.27;;;1.40;;
22129;SDS011;11231;50.746;4.272;2023-04-25T12:04:09;8.17;;;1.30;;
22129;SDS011;11231;50.746;4.272;2023-04-25T12:06:40;9.23;;;1.37;;
22129;SDS011;11231;50.746;4.272;2023-04-25T12:09:08;4.00;;;1.00;;
22129;SDS011;11231;50.746;4.272;2023-04-25T12:11:45;6.30;;;1.30;;
22129;SDS011;11231;50.746;4.272;2023-04-25T12:14:12;6.93;;;1.10;;
22129;SDS011;11231;50.746;4.272;2023-04-25T12:16:49;6.13;;;1.00;;
22129;SDS011;11231;50.746;4.272;2023-04-25T12:19:19;9.47;;;1.53;;
22129;SDS011;11231;50.746;4.272;2023-04-25T12:21:45;7.27;;;1.30;;
22129;SDS011;11231;50.746;4.272;2023-04-25T12:24:16;6.17;;;1.00;;
22129;SDS011;11231;50.746;4.272;2023-04-25T12:26:49;5.67;;;1.60;;
22129;SDS011;11231;50.746;4.272;2023-04-25T12:29:24;7.40;;;1.40;;
22129;SDS011;11231;50.746;4.272;2023-04-25T12:31:51;7.07;;;1.10;;
22129;SDS011;11231;50.746;4.272;2023-04-25T12:34:21;10.77;;;1.63;;
22129;SDS011;11231;50.746;4.272;2023-04-25T12:36:48;6.13;;;1.30;;
22129;SDS011;11231;50.746;4.272;2023-04-25T12:39:18;9.03;;;1.27;;
22129;SDS011;11231;50.746;4.272;2023-04-25T12:41:48;6.73;;;1.60;;
22129;SDS011;11231;50.746;4.272;2023-04-25T12:44:15;5.13;;;1.20;;
22129;SDS011;11231;50.746;4.272;2023-04-25T12:46:42;8.63;;;1.60;;
22129;SDS011;11231;50.746;4.272;2023-04-25T12:49:08;7.40;;;1.20;;
22129;SDS011;11231;50.746;4.272;2023-04-25T12:51:34;6.43;;;1.33;;
22129;SDS011;11231;50.746;4.272;2023-04-25T12:54:01;5.23;;;1.20;;
22129;SDS011;11231;50.746;4.272;2023-04-25T12:56:29;5.70;;;1.30;;
22129;SDS011;11231;50.746;4.272;2023-04-25T12:58:55;6.97;;;1.10;;
22129;SDS011;11231;50.746;4.272;2023-04-25T13:01:21;5.63;;;1.20;;
22129;SDS011;11231;50.746;4.272;2023-04-25T13:03:48;6.03;;;1.40;;
22129;SDS011;11231;50.746;4.272;2023-04-25T13:06:14;6.13;;;1.03;;
22129;SDS011;11231;50.746;4.272;2023-04-25T13:08:45;5.87;;;1.20;;
22129;SDS011;11231;50.746;4.272;2023-04-25T13:11:11;5.83;;;1.20;;
22129;SDS011;11231;50.746;4.272;2023-04-25T13:13:39;6.80;;;1.20;;
22129;SDS011;11231;50.746;4.272;2023-04-25T13:16:06;5.30;;;1.30;;
22129;SDS011;11231;50.746;4.272;2023-04-25T13:18:32;7.47;;;1.43;;
22129;SDS011;11231;50.746;4.272;2023-04-25T13:20:59;7.57;;;1.50;;
22129;SDS011;11231;50.746;4.272;2023-04-25T13:23:25;14.47;;;1.80;;
22129;SDS011;11231;50.746;4.272;2023-04-25T13:25:53;4.87;;;1.40;;
22129;SDS011;11231;50.746;4.272;2023-04-25T13:28:23;6.47;;;1.20;;
22129;SDS011;11231;50.746;4.272;2023-04-25T13:30:49;10.47;;;1.60;;
22129;SDS011;11231;50.746;4.272;2023-04-25T13:33:15;10.67;;;2.17;;
22129;SDS011;11231;50.746;4.272;2023-04-25T13:35:42;6.93;;;1.47;;
22129;SDS011;11231;50.746;4.272;2023-04-25T13:38:08;7.17;;;1.50;;
22129;SDS011;11231;50.746;4.272;2023-04-25T13:40:34;5.73;;;1.30;;
22129;SDS011;11231;50.746;4.272;2023-04-25T13:43:00;6.33;;;1.20;;
22129;SDS011;11231;50.746;4.272;2023-04-25T13:45:27;10.97;;;1.60;;
22129;SDS011;11231;50.746;4.272;2023-04-25T13:47:52;7.00;;;1.37;;
22129;SDS011;11231;50.746;4.272;2023-04-25T13:50:18;5.57;;;1.30;;
22129;SDS011;11231;50.746;4.272;2023-04-25T13:52:44;9.87;;;1.70;;
22129;SDS011;11231;50.746;4.272;2023-04-25T13:55:11;6.90;;;1.60;;
22129;SDS011;11231;50.746;4.272;2023-04-25T13:57:37;7.33;;;1.77;;
22129;SDS011;11231;50.746;4.272;2023-04-25T14:00:03;12.23;;;2.00;;
22129;SDS011;11231;50.746;4.272;2023-04-25T14:02:34;8.30;;;1.60;;
22129;SDS011;11231;50.746;4.272;2023-04-25T14:05:01;8.50;;;1.70;;
22129;SDS011;11231;50.746;4.272;2023-04-25T14:07:27;5.90;;;1.20;;
22129;SDS011;11231;50.746;4.272;2023-04-25T14:09:53;7.67;;;1.30;;
22129;SDS011;11231;50.746;4.272;2023-04-25T14:12:22;10.87;;;1.60;;
22129;SDS011;11231;50.746;4.272;2023-04-25T14:14:50;6.13;;;1.10;;
22129;SDS011;11231;50.746;4.272;2023-04-25T14:17:17;7.57;;;1.10;;
22129;SDS011;11231;50.746;4.272;2023-04-25T14:19:44;10.70;;;1.90;;
22129;SDS011;11231;50.746;4.272;2023-04-25T14:22:13;15.20;;;2.00;;
22129;SDS011;11231;50.746;4.272;2023-04-25T14:24:43;11.27;;;1.60;;
22129;SDS011;11231;50.746;4.272;2023-04-25T14:27:08;8.10;;;1.50;;
22129;SDS011;11231;50.746;4.272;2023-04-25T14:29:34;9.87;;;1.30;;
22129;SDS011;11231;50.746;4.272;2023-04-25T14:32:00;7.23;;;1.37;;
22129;SDS011;11231;50.746;4.272;2023-04-25T14:34:27;4.80;;;1.40;;
22129;SDS011;11231;50.746;4.272;2023-04-25T14:36:52;4.47;;;1.20;;
22129;SDS011;11231;50.746;4.272;2023-04-25T14:39:20;9.33;;;1.60;;
22129;SDS011;11231;50.746;4.272;2023-04-25T14:41:45;7.20;;;1.30;;
22129;SDS011;11231;50.746;4.272;2023-04-25T14:44:11;11.23;;;2.00;;
22129;SDS011;11231;50.746;4.272;2023-04-25T14:46:37;7.53;;;1.27;;
22129;SDS011;11231;50.746;4.272;2023-04-25T14:49:03;8.57;;;1.90;;
22129;SDS011;11231;50.746;4.272;2023-04-25T14:51:29;8.03;;;1.73;;
22129;SDS011;11231;50.746;4.272;2023-04-25T14:53:56;8.80;;;1.50;;
22129;SDS011;11231;50.746;4.272;2023-04-25T14:56:21;10.17;;;1.40;;
22129;SDS011;11231;50.746;4.272;2023-04-25T14:58:49;7.87;;;1.50;;
22129;SDS011;11231;50.746;4.272;2023-04-25T15:01:15;9.07;;;2.10;;
22129;SDS011;11231;50.746;4.272;2023-04-25T15:03:41;5.13;;;1.40;;
22129;SDS011;11231;50.746;4.272;2023-04-25T15:06:07;4.13;;;1.27;;
22129;SDS011;11231;50.746;4.272;2023-04-25T15:08:33;6.93;;;1.20;;